createdAt,value
2019-06-19T00:04:24.415Z,70.50
2019-06-19T00:09:23.965Z,71.10
2019-06-19T00:14:35.868Z,72.50
2019-06-19T00:19:37.017Z,72.40
2019-06-19T00:24:36.771Z,72.70
2019-06-19T00:29:40.447Z,73.30
2019-06-19T00:34:37.525Z,73.70
2019-06-19T00:39:37.062Z,75.00
2019-06-19T00:44:36.602Z,74.90
2019-06-19T00:49:36.150Z,75.20
2019-06-19T00:54:38.054Z,75.60
2019-06-19T00:59:51.616Z,76.30
2019-06-19T01:04:40.792Z,76.70
2019-06-19T01:09:41.446Z,77.20
2019-06-19T01:14:42.254Z,77.70
2019-06-19T01:19:41.797Z,78.30
2019-06-19T01:24:41.697Z,78.90
2019-06-19T01:29:41.355Z,79.20
2019-06-19T01:34:41.484Z,79.50
2019-06-19T01:39:41.221Z,79.90
2019-06-19T01:44:41.827Z,80.80
2019-06-19T01:49:41.358Z,82.30
2019-06-19T01:54:41.163Z,82.20
2019-06-19T01:59:41.701Z,82.90
2019-06-19T02:04:41.766Z,83.30
2019-06-19T02:09:42.506Z,83.90
2019-06-19T02:14:42.039Z,84.40
2019-06-19T02:19:44.789Z,85.00
2019-06-19T02:24:42.819Z,85.60
2019-06-19T02:29:42.363Z,85.90
2019-06-19T02:34:42.456Z,86.70
2019-06-19T02:39:42.163Z,87.30
2019-06-19T02:44:41.712Z,88.20
2019-06-19T02:49:41.423Z,89.00
2019-06-19T02:54:41.029Z,89.20
2019-06-19T02:59:40.579Z,89.90
2019-06-19T03:04:40.115Z,90.20
2019-06-19T03:09:39.651Z,90.70
2019-06-19T03:14:39.189Z,90.80
2019-06-19T03:19:38.740Z,91.30
2019-06-19T03:24:38.294Z,91.40
2019-06-19T03:29:37.834Z,92.00
2019-06-19T03:34:37.381Z,92.50
2019-06-19T03:39:38.189Z,92.90
2019-06-19T03:44:37.736Z,93.30
2019-06-19T03:49:37.287Z,93.60
2019-06-19T03:54:36.915Z,94.10
2019-06-19T03:59:36.469Z,94.30
2019-06-19T04:04:36.002Z,94.90
2019-06-19T04:09:35.542Z,95.10
2019-06-19T04:14:35.073Z,95.80
2019-06-19T04:19:34.618Z,95.80
2019-06-19T04:24:34.162Z,96.20
2019-06-19T04:29:35.717Z,96.40
2019-06-19T04:34:35.403Z,96.50
2019-06-19T04:39:34.986Z,96.50
2019-06-19T04:44:43.862Z,96.60
2019-06-19T04:49:43.474Z,96.70
2019-06-19T04:54:43.087Z,96.60
2019-06-19T04:59:43.171Z,97.20
2019-06-19T05:04:42.714Z,97.30
2019-06-19T05:09:42.257Z,97.60
2019-06-19T05:14:41.866Z,98.20
2019-06-19T05:19:41.406Z,98.10
2019-06-19T05:24:40.958Z,98.10
2019-06-19T05:29:40.501Z,98.20
2019-06-19T05:34:40.067Z,98.00
2019-06-19T05:39:39.598Z,98.60
2019-06-19T05:44:39.373Z,98.40
2019-06-19T05:49:38.918Z,98.30
2019-06-19T05:54:38.471Z,98.50
2019-06-19T05:59:38.026Z,98.40
2019-06-19T06:04:37.654Z,98.80
2019-06-19T06:09:38.469Z,98.70
2019-06-19T06:14:38.223Z,98.50
2019-06-19T06:19:37.785Z,98.50
2019-06-19T06:24:37.384Z,98.30
2019-06-19T06:29:36.925Z,98.10
2019-06-19T06:34:36.481Z,97.90
2019-06-19T06:39:36.096Z,98.20
2019-06-19T06:44:35.665Z,98.50
2019-06-19T06:49:35.210Z,98.70
2019-06-19T06:54:34.762Z,98.20
2019-06-19T06:59:34.289Z,98.30
2019-06-19T07:04:33.834Z,98.20
2019-06-19T07:09:33.434Z,98.10
2019-06-19T07:14:32.995Z,97.80
2019-06-19T07:19:34.761Z,97.50
2019-06-19T07:24:34.344Z,98.00
2019-06-19T07:29:33.878Z,98.00
2019-06-19T07:34:33.430Z,97.30
2019-06-19T07:39:32.981Z,97.10
2019-06-19T07:44:32.545Z,97.20
2019-06-19T07:49:32.094Z,97.80
2019-06-19T07:54:31.641Z,97.00
2019-06-19T07:59:31.192Z,96.80
2019-06-19T08:04:30.791Z,96.80
2019-06-19T08:09:31.405Z,96.50
2019-06-19T08:14:30.972Z,96.30
2019-06-19T08:19:30.558Z,95.60
2019-06-19T08:24:30.112Z,95.40
2019-06-19T08:29:29.656Z,95.10
2019-06-19T08:34:31.815Z,94.70
2019-06-19T08:39:30.498Z,94.50
2019-06-19T08:44:30.193Z,93.40
2019-06-19T08:49:29.850Z,92.60
2019-06-19T08:54:29.491Z,92.50
2019-06-19T08:59:29.042Z,93.00
2019-06-19T09:04:34.848Z,91.10
2019-06-19T09:09:33.542Z,85.30
2019-06-19T09:14:33.081Z,86.20
2019-06-19T09:19:32.662Z,88.40
2019-06-19T09:24:32.242Z,85.90
2019-06-19T09:29:31.792Z,86.10
2019-06-19T09:34:31.342Z,84.00
2019-06-19T09:39:30.966Z,82.40
2019-06-19T09:44:30.510Z,81.50
2019-06-19T09:49:31.105Z,79.70
2019-06-19T09:54:30.648Z,76.90
2019-06-19T09:59:30.197Z,78.40
2019-06-19T10:04:29.730Z,76.20
2019-06-19T10:09:29.258Z,74.50
2019-06-19T10:14:28.811Z,76.10
2019-06-19T10:19:28.414Z,77.80
2019-06-19T10:24:27.958Z,76.20
2019-06-19T10:29:28.467Z,73.50
2019-06-19T10:34:28.013Z,72.90
2019-06-19T10:39:27.566Z,70.70
2019-06-19T10:44:27.201Z,70.90
2019-06-19T10:49:26.834Z,69.20
2019-06-19T10:54:26.374Z,72.30
2019-06-19T10:59:25.909Z,68.40
2019-06-19T11:04:25.466Z,68.00
2019-06-19T11:09:25.026Z,66.10
2019-06-19T11:14:24.987Z,68.30
2019-06-19T11:19:27.484Z,63.20
2019-06-19T11:24:27.025Z,63.80
2019-06-19T11:29:26.590Z,63.70
2019-06-19T11:34:26.122Z,65.50
2019-06-19T11:39:25.666Z,64.80
2019-06-19T11:44:25.203Z,67.00
2019-06-19T11:49:24.730Z,69.60
2019-06-19T11:54:24.266Z,66.70
2019-06-19T11:59:23.807Z,67.30
2019-06-19T12:04:23.347Z,65.10
2019-06-19T12:09:22.893Z,67.50
2019-06-19T12:14:22.454Z,64.00
2019-06-19T12:19:22.055Z,64.50
2019-06-19T12:24:21.595Z,64.20
2019-06-19T12:29:21.121Z,62.60
2019-06-19T12:34:20.728Z,60.40
2019-06-19T12:39:20.346Z,63.30
2019-06-19T12:44:19.879Z,59.00
2019-06-19T12:49:19.430Z,60.40
2019-06-19T12:54:18.970Z,59.70
2019-06-19T12:59:18.507Z,57.80
2019-06-19T13:04:18.059Z,58.10
2019-06-19T13:09:17.595Z,58.50
2019-06-19T13:14:17.133Z,57.80
2019-06-19T13:19:16.674Z,57.90
2019-06-19T13:24:16.294Z,56.60
2019-06-19T13:29:15.829Z,56.50
2019-06-19T13:34:15.377Z,54.90
2019-06-19T13:39:14.922Z,56.50
2019-06-19T13:44:14.470Z,55.30
2019-06-19T13:49:14.066Z,55.60
2019-06-19T13:54:29.611Z,54.40
2019-06-19T13:59:14.954Z,52.70
2019-06-19T14:04:14.496Z,53.70
2019-06-19T14:09:14.130Z,54.70
2019-06-19T14:14:13.684Z,52.40
2019-06-19T14:19:13.211Z,53.00
2019-06-19T14:24:12.757Z,51.60
2019-06-19T14:29:12.284Z,50.80
2019-06-19T14:34:11.814Z,50.90
2019-06-19T14:39:11.371Z,51.00
2019-06-19T14:44:10.926Z,51.20
2019-06-19T14:49:10.498Z,51.90
2019-06-19T14:54:10.115Z,53.30
2019-06-19T14:59:09.661Z,54.10
2019-06-19T15:04:09.270Z,53.30
2019-06-19T15:09:09.957Z,53.00
2019-06-19T15:14:10.025Z,53.60
2019-06-19T15:19:09.560Z,53.30
2019-06-19T15:24:09.111Z,54.00
2019-06-19T15:29:08.662Z,53.10
2019-06-19T15:34:08.247Z,52.80
2019-06-19T15:39:07.795Z,52.10
2019-06-19T15:44:07.690Z,52.20
2019-06-19T15:49:07.347Z,52.40
2019-06-19T15:54:06.971Z,52.10
2019-06-19T15:59:07.593Z,54.00
2019-06-19T16:04:07.234Z,52.10
2019-06-19T16:09:07.981Z,52.60
2019-06-19T16:14:07.567Z,54.70
2019-06-19T16:19:07.903Z,54.10
2019-06-19T16:24:07.512Z,55.40
2019-06-19T16:29:07.140Z,57.20
2019-06-19T16:34:07.663Z,55.20
2019-06-19T16:39:08.252Z,55.60
2019-06-19T16:44:07.792Z,55.60
2019-06-19T16:49:07.347Z,55.60
2019-06-19T16:54:06.878Z,53.70
2019-06-19T16:59:06.443Z,53.60
2019-06-19T17:04:05.979Z,53.50
2019-06-19T17:09:08.081Z,52.80
2019-06-19T17:14:07.807Z,54.20
2019-06-19T17:19:07.594Z,56.10
2019-06-19T17:24:08.097Z,56.40
2019-06-19T17:29:07.710Z,55.70
2019-06-19T17:34:07.323Z,55.80
2019-06-19T17:39:21.483Z,55.40
2019-06-19T17:44:08.606Z,55.60
2019-06-19T17:49:09.307Z,55.80
2019-06-19T17:54:08.842Z,57.10
2019-06-19T17:59:08.406Z,57.50
2019-06-19T18:04:07.943Z,57.90
2019-06-19T18:09:08.382Z,58.10
2019-06-19T18:14:08.182Z,58.80
2019-06-19T18:19:07.769Z,58.70
2019-06-19T18:24:07.318Z,58.40
2019-06-19T18:29:07.201Z,60.00
2019-06-19T18:34:08.467Z,59.70
2019-06-19T18:39:10.197Z,59.90
2019-06-19T18:44:09.926Z,60.40
2019-06-19T18:49:09.482Z,60.90
2019-06-19T18:54:12.158Z,61.30
2019-06-19T18:59:11.957Z,61.70
2019-06-19T19:04:11.502Z,62.30
2019-06-19T19:09:11.117Z,62.80
2019-06-19T19:14:10.725Z,64.00
2019-06-19T19:19:10.352Z,63.60
2019-06-19T19:24:09.941Z,64.20
2019-06-19T19:29:09.557Z,65.40
2019-06-19T19:34:09.107Z,65.90
2019-06-19T19:39:09.178Z,66.40
2019-06-19T19:44:08.713Z,66.80
2019-06-19T19:49:08.264Z,66.60
2019-06-19T19:54:07.924Z,66.80
2019-06-19T19:59:07.788Z,66.20
2019-06-19T20:04:07.490Z,66.20
2019-06-19T20:09:08.406Z,66.00
2019-06-19T20:14:08.032Z,66.40
2019-06-19T20:19:08.093Z,67.50
2019-06-19T20:24:07.736Z,67.30
2019-06-19T20:29:07.330Z,67.60
2019-06-19T20:34:06.879Z,67.60
2019-06-19T20:39:16.042Z,68.00
2019-06-19T20:44:09.065Z,67.70
2019-06-19T20:49:08.597Z,68.30
2019-06-19T20:54:08.215Z,68.70
2019-06-19T20:59:49.355Z,68.90
2019-06-19T21:04:49.143Z,69.80
2019-06-19T21:09:48.721Z,71.50
2019-06-19T21:14:48.257Z,72.20
2019-06-19T21:19:47.818Z,72.40
2019-06-19T21:24:47.361Z,72.90
2019-06-19T21:29:46.996Z,73.70
2019-06-19T21:34:46.539Z,74.10
2019-06-19T21:39:46.125Z,75.90
2019-06-19T21:44:45.713Z,75.80
2019-06-19T21:49:45.290Z,76.70
2019-06-19T21:54:44.845Z,77.20
2019-06-19T21:59:44.440Z,77.40
2019-06-19T22:04:44.116Z,77.80
2019-06-19T22:09:43.918Z,78.80
2019-06-19T22:14:43.711Z,78.50
2019-06-19T22:19:43.309Z,78.90
2019-06-19T22:24:42.896Z,79.30
2019-06-19T22:29:42.588Z,79.30
2019-06-19T22:34:42.194Z,79.50
2019-06-19T22:39:41.757Z,78.50
2019-06-19T22:44:41.314Z,76.90
2019-06-19T22:49:41.018Z,76.10
2019-06-19T22:54:40.595Z,72.80
2019-06-19T22:59:40.150Z,71.10
2019-06-19T23:04:39.786Z,69.00
2019-06-19T23:09:39.406Z,66.80
2019-06-19T23:14:38.943Z,66.40
2019-06-19T23:19:38.519Z,66.10
2019-06-19T23:24:44.261Z,66.10
2019-06-19T23:29:43.794Z,66.80
2019-06-19T23:34:43.338Z,67.00
2019-06-19T23:39:43.871Z,67.70
2019-06-19T23:44:43.558Z,66.70
2019-06-19T23:49:43.129Z,67.10
2019-06-19T23:54:42.726Z,67.30
2019-06-19T23:59:42.388Z,67.80
